createdAt,value
2022-12-31T00:00:34.754Z,66.22
2022-12-31T00:03:22.096Z,65.72
2022-12-31T00:05:49.196Z,66.06
2022-12-31T00:08:16.357Z,66.60
2022-12-31T00:10:43.314Z,66.16
2022-12-31T00:13:12.791Z,66.54
2022-12-31T00:15:41.607Z,66.69
2022-12-31T00:18:09.234Z,66.66
2022-12-31T00:20:41.015Z,66.80
2022-12-31T00:23:10.243Z,67.03
2022-12-31T00:25:37.663Z,67.13
2022-12-31T00:28:05.643Z,66.89
2022-12-31T00:30:34.292Z,66.79
2022-12-31T00:33:01.562Z,67.29
2022-12-31T00:35:28.505Z,66.93
2022-12-31T00:37:55.720Z,67.83
2022-12-31T00:40:22.662Z,67.74
2022-12-31T00:42:49.913Z,67.90
2022-12-31T00:45:16.996Z,67.83
2022-12-31T00:47:44.212Z,67.39
2022-12-31T00:50:11.257Z,67.72
2022-12-31T00:52:38.506Z,67.80
2022-12-31T00:55:06.253Z,67.88
2022-12-31T00:57:33.559Z,67.64
2022-12-31T01:00:00.628Z,67.69
2022-12-31T01:02:27.994Z,68.17
2022-12-31T01:04:55.074Z,68.02
2022-12-31T01:07:22.305Z,68.38
2022-12-31T01:09:49.336Z,68.67
2022-12-31T01:12:16.594Z,68.80
2022-12-31T01:14:44.846Z,68.91
2022-12-31T01:17:13.432Z,69.32
2022-12-31T01:19:40.539Z,69.04
2022-12-31T01:22:07.724Z,68.92
2022-12-31T01:24:34.760Z,68.59
2022-12-31T01:27:01.910Z,68.72
2022-12-31T01:29:29.726Z,69.26
2022-12-31T01:31:57.036Z,69.03
2022-12-31T01:34:23.977Z,68.95
2022-12-31T01:36:51.359Z,69.00
2022-12-31T01:39:18.249Z,69.10
2022-12-31T01:41:47.931Z,69.47
2022-12-31T01:44:23.997Z,69.81
2022-12-31T01:47:00.181Z,70.16
2022-12-31T01:49:41.114Z,69.99
2022-12-31T01:52:46.920Z,69.58
2022-12-31T01:55:32.864Z,71.15
2022-12-31T01:58:14.249Z,71.28
2022-12-31T02:00:42.155Z,71.35
2022-12-31T02:03:09.771Z,71.84
2022-12-31T02:05:53.111Z,72.11
2022-12-31T02:08:21.985Z,71.96
2022-12-31T02:10:49.013Z,71.94
2022-12-31T02:13:16.496Z,71.93
2022-12-31T02:16:13.648Z,72.13
2022-12-31T02:18:56.323Z,72.08
2022-12-31T02:21:55.825Z,72.60
2022-12-31T02:24:48.135Z,73.33
2022-12-31T02:28:11.834Z,72.85
2022-12-31T02:30:42.519Z,72.35
2022-12-31T02:33:39.013Z,72.59
2022-12-31T02:36:17.903Z,72.61
2022-12-31T02:38:48.761Z,73.09
2022-12-31T02:41:38.307Z,73.33
2022-12-31T02:44:26.049Z,72.96
2022-12-31T02:47:05.290Z,73.59
2022-12-31T02:49:57.291Z,74.40
2022-12-31T02:52:51.265Z,73.72
2022-12-31T02:56:08.895Z,74.59
2022-12-31T02:59:12.126Z,74.20
2022-12-31T03:02:08.128Z,74.73
2022-12-31T03:04:36.391Z,74.54
2022-12-31T03:07:28.875Z,74.75
2022-12-31T03:09:56.717Z,75.09
2022-12-31T03:12:47.091Z,75.63
2022-12-31T03:15:27.792Z,76.06
2022-12-31T03:17:57.775Z,76.86
2022-12-31T03:20:50.647Z,76.20
2022-12-31T03:23:30.169Z,76.08
2022-12-31T03:25:58.874Z,76.36
2022-12-31T03:28:30.123Z,76.05
2022-12-31T03:31:01.549Z,76.04
2022-12-31T03:33:41.501Z,76.06
2022-12-31T03:36:14.326Z,75.74
2022-12-31T03:38:41.738Z,75.70
2022-12-31T03:41:11.190Z,75.44
2022-12-31T03:43:38.984Z,74.99
2022-12-31T03:46:06.579Z,75.27
2022-12-31T03:48:33.555Z,75.38
2022-12-31T03:51:00.738Z,75.16
2022-12-31T03:53:27.793Z,75.46
2022-12-31T03:55:55.624Z,75.34
2022-12-31T03:58:23.198Z,75.20
2022-12-31T04:00:51.040Z,75.27
2022-12-31T04:03:18.336Z,75.37
2022-12-31T04:05:45.579Z,75.17
2022-12-31T04:08:12.611Z,74.85
2022-12-31T04:10:39.942Z,75.14
2022-12-31T04:13:06.878Z,75.03
2022-12-31T04:15:34.096Z,74.94
2022-12-31T04:18:01.050Z,74.65
2022-12-31T04:20:28.244Z,74.82
2022-12-31T04:22:55.122Z,75.11
2022-12-31T04:25:22.290Z,75.11
2022-12-31T04:27:49.303Z,74.71
2022-12-31T04:30:16.687Z,74.97
2022-12-31T04:32:43.572Z,74.67
2022-12-31T04:35:11.643Z,75.19
2022-12-31T04:37:39.226Z,74.81
2022-12-31T04:40:08.539Z,74.38
2022-12-31T04:42:36.505Z,74.49
2022-12-31T04:45:04.528Z,74.79
2022-12-31T04:47:31.905Z,74.44
2022-12-31T04:49:58.880Z,74.65
2022-12-31T04:52:26.135Z,74.59
2022-12-31T04:54:53.187Z,74.77
2022-12-31T04:57:20.446Z,74.63
2022-12-31T04:59:47.746Z,74.68
2022-12-31T05:02:15.144Z,74.25
2022-12-31T05:04:42.278Z,74.59
2022-12-31T05:07:09.534Z,74.86
2022-12-31T05:09:36.649Z,74.67
2022-12-31T05:12:04.138Z,74.79
2022-12-31T05:14:31.029Z,75.31
2022-12-31T05:16:59.381Z,74.79
2022-12-31T05:19:26.328Z,74.63
2022-12-31T05:22:12.239Z,75.06
2022-12-31T05:24:39.447Z,74.85
2022-12-31T05:27:06.629Z,74.96
2022-12-31T05:29:33.602Z,74.63
2022-12-31T05:32:00.808Z,74.63
2022-12-31T05:34:27.741Z,74.77
2022-12-31T05:36:54.900Z,74.80
2022-12-31T05:39:21.767Z,75.39
2022-12-31T05:41:48.970Z,75.46
2022-12-31T05:44:15.838Z,74.91
2022-12-31T05:46:43.005Z,75.64
2022-12-31T05:49:09.926Z,75.30
2022-12-31T05:51:37.228Z,76.10
2022-12-31T05:54:04.590Z,75.75
2022-12-31T05:56:32.819Z,75.84
2022-12-31T05:58:59.784Z,76.40
2022-12-31T06:01:27.079Z,75.88
2022-12-31T06:03:54.121Z,76.65
2022-12-31T06:06:21.566Z,76.42
2022-12-31T06:08:52.649Z,76.80
2022-12-31T06:11:19.971Z,77.09
2022-12-31T06:13:46.885Z,76.34
2022-12-31T06:16:14.210Z,76.70
2022-12-31T06:18:41.378Z,75.70
2022-12-31T06:21:09.329Z,75.68
2022-12-31T06:23:36.321Z,76.61
2022-12-31T06:26:05.152Z,75.85
2022-12-31T06:28:32.043Z,75.33
2022-12-31T06:31:11.053Z,75.17
2022-12-31T06:33:38.387Z,75.80
2022-12-31T06:36:09.127Z,75.08
2022-12-31T06:38:41.224Z,74.52
2022-12-31T06:41:14.954Z,75.03
2022-12-31T06:43:42.896Z,74.94
2022-12-31T06:46:14.555Z,74.57
2022-12-31T06:48:43.218Z,74.43
2022-12-31T06:51:17.916Z,74.51
2022-12-31T06:53:50.690Z,74.43
2022-12-31T06:56:32.950Z,74.86
2022-12-31T06:59:00.881Z,74.87
2022-12-31T07:01:44.770Z,74.51
2022-12-31T07:04:51.704Z,74.69
2022-12-31T07:08:03.110Z,74.43
2022-12-31T07:11:05.083Z,74.23
2022-12-31T07:14:09.452Z,73.84
2022-12-31T07:17:05.922Z,74.03
2022-12-31T07:19:57.718Z,73.51
2022-12-31T07:22:25.655Z,73.73
2022-12-31T07:24:53.418Z,73.15
2022-12-31T07:27:48.429Z,73.46
2022-12-31T07:30:17.907Z,73.26
2022-12-31T07:33:19.990Z,73.36
2022-12-31T07:36:26.267Z,72.79
2022-12-31T07:39:16.659Z,72.84
2022-12-31T07:42:16.578Z,72.99
2022-12-31T07:45:01.264Z,72.57
2022-12-31T07:47:30.126Z,71.84
2022-12-31T07:49:58.163Z,71.22
2022-12-31T07:52:26.510Z,71.17
2022-12-31T07:54:53.556Z,71.28
2022-12-31T07:57:28.754Z,70.65
2022-12-31T08:00:11.264Z,70.41
2022-12-31T08:03:20.937Z,70.42
2022-12-31T08:06:11.700Z,70.86
2022-12-31T08:09:21.544Z,70.53
2022-12-31T08:12:08.593Z,70.19
2022-12-31T08:14:44.656Z,69.66
2022-12-31T08:17:18.590Z,69.58
2022-12-31T08:19:46.745Z,69.36
2022-12-31T08:22:28.796Z,69.67
2022-12-31T08:25:27.761Z,69.65
2022-12-31T08:28:31.168Z,69.03
2022-12-31T08:31:05.526Z,68.64
2022-12-31T08:33:41.974Z,68.21
2022-12-31T08:36:34.456Z,68.00
2022-12-31T08:39:28.423Z,67.91
2022-12-31T08:41:58.374Z,67.81
2022-12-31T08:44:54.410Z,67.63
2022-12-31T08:48:05.874Z,67.02
2022-12-31T08:50:33.373Z,66.98
2022-12-31T08:53:01.215Z,66.84
2022-12-31T08:55:28.965Z,66.71
2022-12-31T08:58:28.359Z,66.75
2022-12-31T09:00:59.391Z,66.52
2022-12-31T09:03:47.900Z,66.26
2022-12-31T09:06:20.447Z,66.04
2022-12-31T09:09:21.450Z,66.30
2022-12-31T09:11:59.345Z,66.31
2022-12-31T09:15:03.786Z,65.98
2022-12-31T09:17:49.837Z,65.86
2022-12-31T09:20:41.799Z,66.10
2022-12-31T09:23:11.092Z,66.08
2022-12-31T09:26:07.074Z,65.81
2022-12-31T09:28:49.264Z,65.77
2022-12-31T09:31:55.573Z,65.96
2022-12-31T09:34:35.357Z,65.90
2022-12-31T09:37:38.684Z,65.60
2022-12-31T09:40:28.643Z,65.52
2022-12-31T09:43:43.807Z,65.55
2022-12-31T09:46:28.561Z,65.45
2022-12-31T09:49:31.620Z,65.20
2022-12-31T09:52:19.958Z,65.24
2022-12-31T09:55:07.401Z,64.96
2022-12-31T09:57:58.357Z,65.13
2022-12-31T10:00:47.215Z,64.81
2022-12-31T10:03:58.815Z,64.96
2022-12-31T10:06:47.977Z,64.93
2022-12-31T10:09:55.785Z,64.44
2022-12-31T10:12:44.598Z,64.75
2022-12-31T10:15:32.916Z,64.01
2022-12-31T10:18:41.936Z,63.75
2022-12-31T10:21:58.016Z,64.13
2022-12-31T10:25:37.792Z,63.86
2022-12-31T10:28:28.865Z,63.53
2022-12-31T10:31:31.342Z,63.77
2022-12-31T10:34:17.243Z,63.96
2022-12-31T10:36:56.387Z,63.70
2022-12-31T10:40:03.915Z,63.50
2022-12-31T10:43:04.710Z,63.33
2022-12-31T10:46:20.902Z,63.07
2022-12-31T10:49:11.454Z,63.00
2022-12-31T10:52:41.543Z,62.79
2022-12-31T10:55:43.282Z,62.91
2022-12-31T10:58:53.983Z,62.58
2022-12-31T11:01:27.276Z,62.49
2022-12-31T11:04:06.195Z,62.34
2022-12-31T11:07:17.378Z,62.16
2022-12-31T11:11:00.242Z,62.30
2022-12-31T11:14:16.196Z,61.85
2022-12-31T11:17:32.951Z,61.87
2022-12-31T11:20:33.004Z,61.71
2022-12-31T11:23:34.485Z,61.98
2022-12-31T11:26:41.558Z,61.31
2022-12-31T11:29:36.222Z,60.71
2022-12-31T11:32:46.681Z,60.89
2022-12-31T11:35:16.771Z,61.08
2022-12-31T11:37:59.094Z,60.70
2022-12-31T11:40:57.040Z,60.62
2022-12-31T11:43:39.612Z,60.15
2022-12-31T11:46:27.859Z,59.97
2022-12-31T11:49:26.555Z,59.83
2022-12-31T11:52:19.648Z,59.70
2022-12-31T11:55:45.189Z,59.20
2022-12-31T11:58:28.376Z,59.04
2022-12-31T12:01:22.730Z,58.95
2022-12-31T12:03:50.079Z,58.67
2022-12-31T12:06:25.825Z,58.80
2022-12-31T12:08:55.997Z,58.26
2022-12-31T12:11:27.788Z,58.42
2022-12-31T12:13:55.045Z,58.51
2022-12-31T12:16:25.856Z,57.80
2022-12-31T12:19:06.756Z,57.85
2022-12-31T12:21:34.788Z,57.85
2022-12-31T12:24:29.224Z,57.84
2022-12-31T12:26:57.809Z,57.71
2022-12-31T12:29:32.339Z,57.37
2022-12-31T12:32:04.356Z,57.80
2022-12-31T12:34:39.470Z,57.34
2022-12-31T12:37:24.679Z,57.42
2022-12-31T12:40:07.067Z,57.06
2022-12-31T12:42:34.323Z,57.00
2022-12-31T12:45:29.128Z,56.84
2022-12-31T12:48:01.894Z,56.93
2022-12-31T12:50:55.332Z,56.97
2022-12-31T12:53:45.509Z,56.83
2022-12-31T12:56:59.229Z,56.58
2022-12-31T13:00:10.253Z,57.11
2022-12-31T13:02:40.257Z,56.80
2022-12-31T13:05:38.572Z,57.00
2022-12-31T13:08:25.878Z,56.74
2022-12-31T13:11:26.528Z,56.91
2022-12-31T13:14:18.086Z,56.75
2022-12-31T13:17:29.647Z,56.88
2022-12-31T13:20:14.194Z,56.58
2022-12-31T13:23:16.951Z,56.88
2022-12-31T13:26:22.734Z,56.54
2022-12-31T13:28:53.773Z,56.59
2022-12-31T13:31:43.146Z,56.70
2022-12-31T13:34:24.614Z,56.54
2022-12-31T13:36:57.139Z,56.68
2022-12-31T13:39:31.405Z,56.90
2022-12-31T13:41:58.287Z,56.75
2022-12-31T13:44:54.989Z,56.73
2022-12-31T13:47:41.005Z,56.83
2022-12-31T13:50:36.526Z,56.94
2022-12-31T13:53:25.929Z,56.92
2022-12-31T13:56:03.663Z,56.88
2022-12-31T13:58:45.148Z,57.00
2022-12-31T14:01:33.499Z,57.13
2022-12-31T14:04:14.018Z,57.22
2022-12-31T14:07:07.325Z,57.33
2022-12-31T14:09:36.059Z,57.33
2022-12-31T14:12:37.720Z,57.27
2022-12-31T14:15:31.238Z,57.14
2022-12-31T14:18:04.800Z,57.37
2022-12-31T14:20:58.908Z,57.66
2022-12-31T14:23:51.116Z,57.25
2022-12-31T14:26:21.158Z,57.58
2022-12-31T14:29:03.688Z,57.46
2022-12-31T14:31:54.295Z,57.77
2022-12-31T14:34:50.786Z,58.02
2022-12-31T14:37:41.939Z,57.41
2022-12-31T14:40:30.800Z,57.56
2022-12-31T14:43:41.458Z,57.95
2022-12-31T14:46:20.645Z,57.77
2022-12-31T14:49:10.503Z,58.28
2022-12-31T14:51:37.889Z,58.51
2022-12-31T14:54:05.284Z,58.18
2022-12-31T14:56:45.272Z,58.13
2022-12-31T14:59:34.428Z,58.03
2022-12-31T15:02:28.432Z,58.13
2022-12-31T15:05:18.225Z,58.37
2022-12-31T15:07:48.392Z,58.13
2022-12-31T15:10:22.777Z,58.04
2022-12-31T15:13:19.583Z,58.37
2022-12-31T15:16:18.929Z,58.27
2022-12-31T15:19:41.160Z,58.42
2022-12-31T15:22:46.338Z,58.48
2022-12-31T15:25:25.713Z,58.54
2022-12-31T15:27:53.520Z,58.67
2022-12-31T15:30:44.114Z,58.50
2022-12-31T15:33:32.542Z,58.28
2022-12-31T15:36:21.170Z,58.42
2022-12-31T15:38:50.107Z,58.29
2022-12-31T15:41:20.288Z,58.28
2022-12-31T15:44:37.127Z,58.25
2022-12-31T15:47:29.597Z,58.43
2022-12-31T15:50:04.195Z,58.79
2022-12-31T15:52:47.829Z,58.33
2022-12-31T15:55:22.339Z,58.48
2022-12-31T15:57:50.896Z,58.53
2022-12-31T16:00:24.340Z,58.22
2022-12-31T16:02:55.397Z,58.43
2022-12-31T16:05:27.145Z,58.19
2022-12-31T16:07:58.041Z,57.99
2022-12-31T16:10:32.850Z,57.98
2022-12-31T16:13:00.478Z,58.11
2022-12-31T16:15:34.123Z,57.98
2022-12-31T16:18:11.106Z,57.99
2022-12-31T16:20:45.993Z,58.16
2022-12-31T16:23:26.389Z,57.74
2022-12-31T16:25:59.870Z,57.58
2022-12-31T16:28:33.029Z,57.78
2022-12-31T16:31:07.535Z,57.76
2022-12-31T16:33:34.793Z,57.71
2022-12-31T16:36:02.296Z,57.52
2022-12-31T16:38:37.976Z,57.62
2022-12-31T16:41:18.455Z,57.48
2022-12-31T16:43:49.129Z,57.10
2022-12-31T16:46:31.922Z,57.45
2022-12-31T16:49:07.195Z,57.29
2022-12-31T16:51:37.668Z,57.54
2022-12-31T16:54:05.068Z,57.59
2022-12-31T16:56:39.626Z,57.59
2022-12-31T16:59:35.656Z,57.84
2022-12-31T17:02:14.129Z,58.15
2022-12-31T17:04:48.097Z,58.16
2022-12-31T17:07:41.056Z,57.89
2022-12-31T17:10:08.170Z,57.91
2022-12-31T17:13:25.033Z,57.81
2022-12-31T17:15:41.858Z,57.82
2022-12-31T17:18:20.537Z,57.75
2022-12-31T17:20:51.624Z,57.84
2022-12-31T17:23:32.643Z,57.69
2022-12-31T17:26:13.941Z,57.59
2022-12-31T17:28:48.713Z,57.25
2022-12-31T17:31:33.643Z,57.52
2022-12-31T17:34:12.509Z,57.44
2022-12-31T17:37:00.586Z,57.66
2022-12-31T17:39:44.592Z,57.42
2022-12-31T17:42:15.480Z,57.49
2022-12-31T17:44:44.693Z,57.29
2022-12-31T17:47:16.420Z,57.59
2022-12-31T17:49:46.627Z,57.81
2022-12-31T17:52:16.162Z,57.39
2022-12-31T17:54:43.129Z,57.83
2022-12-31T17:57:27.871Z,57.72
2022-12-31T17:59:55.231Z,57.41
2022-12-31T18:02:22.501Z,57.67
2022-12-31T18:04:49.662Z,57.71
2022-12-31T18:07:16.873Z,57.71
2022-12-31T18:09:43.730Z,57.33
2022-12-31T18:12:15.856Z,57.54
2022-12-31T18:14:45.862Z,57.72
2022-12-31T18:17:16.457Z,57.62
2022-12-31T18:20:04.089Z,57.45
2022-12-31T18:22:30.908Z,57.58
2022-12-31T18:24:57.770Z,57.32
2022-12-31T18:27:24.974Z,57.40
2022-12-31T18:29:51.964Z,57.27
2022-12-31T18:32:23.964Z,57.27
2022-12-31T18:34:51.684Z,57.20
2022-12-31T18:37:22.242Z,57.06
2022-12-31T18:39:49.523Z,57.08
2022-12-31T18:42:19.178Z,56.85
2022-12-31T18:44:47.099Z,56.64
2022-12-31T18:47:19.818Z,56.42
2022-12-31T18:49:48.592Z,56.28
2022-12-31T18:52:21.677Z,56.39
2022-12-31T18:54:49.922Z,56.23
2022-12-31T18:57:17.252Z,56.43
2022-12-31T18:59:44.172Z,56.15
2022-12-31T19:02:20.392Z,56.42
2022-12-31T19:04:48.561Z,55.88
2022-12-31T19:07:15.712Z,56.10
2022-12-31T19:09:45.592Z,55.88
2022-12-31T19:12:14.959Z,56.20
2022-12-31T19:14:42.050Z,55.93
2022-12-31T19:19:35.115Z,56.26
2022-12-31T19:22:02.921Z,56.58
2022-12-31T19:24:30.197Z,56.25
2022-12-31T19:26:57.604Z,56.32
2022-12-31T19:29:27.146Z,56.59
2022-12-31T19:31:54.909Z,56.83
2022-12-31T19:34:22.232Z,56.71
2022-12-31T19:36:49.542Z,56.65
2022-12-31T19:39:21.238Z,56.64
2022-12-31T19:41:56.475Z,56.82
2022-12-31T19:44:26.592Z,56.99
2022-12-31T19:46:53.773Z,57.11
2022-12-31T19:49:20.821Z,56.76
2022-12-31T19:51:48.159Z,57.14
2022-12-31T19:54:15.279Z,56.95
2022-12-31T19:56:42.590Z,56.99
2022-12-31T19:59:10.911Z,57.15
2022-12-31T20:01:38.861Z,56.96
2022-12-31T20:04:05.966Z,57.01
2022-12-31T20:06:33.384Z,56.97
2022-12-31T20:09:00.416Z,56.86
2022-12-31T20:11:27.784Z,56.88
2022-12-31T20:13:54.759Z,56.99
2022-12-31T20:16:26.710Z,57.10
2022-12-31T20:18:54.230Z,57.06
2022-12-31T20:21:28.074Z,56.76
2022-12-31T20:23:56.373Z,56.64
2022-12-31T20:26:25.988Z,56.91
2022-12-31T20:28:53.677Z,56.67
2022-12-31T20:31:25.435Z,56.77
2022-12-31T20:33:54.724Z,56.74
2022-12-31T20:36:23.368Z,56.59
2022-12-31T20:38:50.511Z,56.70
2022-12-31T20:41:22.950Z,56.51
2022-12-31T20:43:50.662Z,56.44
2022-12-31T20:46:22.489Z,57.00
2022-12-31T20:48:52.486Z,56.55
2022-12-31T20:51:22.863Z,56.30
2022-12-31T20:53:55.496Z,56.57
2022-12-31T20:56:24.920Z,56.35
2022-12-31T20:58:51.939Z,56.18
2022-12-31T21:01:19.640Z,56.57
2022-12-31T21:04:06.211Z,56.54
2022-12-31T21:06:35.854Z,56.35
2022-12-31T21:09:06.658Z,56.40
2022-12-31T21:11:52.838Z,56.34
2022-12-31T21:14:19.924Z,56.01
2022-12-31T21:16:47.297Z,56.02
2022-12-31T21:19:14.304Z,55.92
2022-12-31T21:21:41.882Z,55.59
2022-12-31T21:24:09.132Z,56.06
2022-12-31T21:26:36.554Z,55.93
2022-12-31T21:29:03.497Z,56.01
2022-12-31T21:31:30.843Z,55.66
2022-12-31T21:33:57.804Z,55.86
2022-12-31T21:36:24.997Z,55.70
2022-12-31T21:38:51.949Z,55.71
2022-12-31T21:41:37.823Z,55.86
2022-12-31T21:44:04.783Z,55.95
2022-12-31T21:46:32.145Z,55.68
2022-12-31T21:49:00.644Z,55.71
2022-12-31T21:51:29.119Z,55.88
2022-12-31T21:53:56.666Z,55.60
2022-12-31T21:56:24.650Z,55.83
2022-12-31T21:59:16.746Z,56.10
2022-12-31T22:02:03.134Z,55.91
2022-12-31T22:07:17.887Z,55.95
2022-12-31T22:09:44.891Z,56.31
2022-12-31T22:12:12.165Z,56.03
2022-12-31T22:14:39.278Z,56.21
2022-12-31T22:17:26.482Z,56.09
2022-12-31T22:20:17.544Z,56.24
2022-12-31T22:22:40.536Z,56.08
2022-12-31T22:25:08.739Z,56.30
2022-12-31T22:27:35.908Z,56.71
2022-12-31T22:30:03.015Z,56.25
2022-12-31T22:32:30.291Z,56.40
2022-12-31T22:34:57.237Z,56.36
2022-12-31T22:37:55.537Z,56.30
2022-12-31T22:40:11.964Z,56.44
2022-12-31T22:42:39.181Z,56.41
2022-12-31T22:45:08.549Z,56.72
2022-12-31T22:47:35.794Z,56.57
2022-12-31T22:50:02.805Z,56.35
2022-12-31T22:52:31.023Z,55.98
2022-12-31T22:54:58.075Z,55.51
2022-12-31T22:57:25.198Z,55.71
2022-12-31T22:59:52.138Z,55.58
2022-12-31T23:02:19.349Z,55.71
2022-12-31T23:04:46.459Z,55.51
2022-12-31T23:07:13.714Z,55.58
2022-12-31T23:09:59.097Z,55.38
2022-12-31T23:12:26.606Z,55.71
2022-12-31T23:15:11.906Z,55.49
2022-12-31T23:17:57.621Z,55.69
2022-12-31T23:20:44.012Z,55.56
2022-12-31T23:23:16.907Z,55.50
2022-12-31T23:25:48.592Z,55.59
2022-12-31T23:28:22.610Z,55.79
2022-12-31T23:30:51.594Z,55.93
2022-12-31T23:33:26.317Z,55.91
2022-12-31T23:36:07.287Z,55.71
2022-12-31T23:38:34.568Z,55.84
2022-12-31T23:41:10.732Z,55.65
2022-12-31T23:43:37.980Z,55.81
2022-12-31T23:46:05.086Z,55.47
2022-12-31T23:48:32.282Z,55.68
2022-12-31T23:50:59.280Z,55.28
2022-12-31T23:53:26.537Z,55.42
2022-12-31T23:55:54.047Z,55.37
2022-12-31T23:58:22.390Z,55.49
